Time,TemperatureF,DewpointF,PressureIn,WindDirection,WindDirectionDegrees,WindSpeedMPH,WindSpeedGustMPH,Humidity,HourlyPrecipIn,Conditions,Clouds,dailyrainin,SoftwareType,DateUTC
2013-02-20 00:05:00,45.5,35.2,29.72,SSW,199,1.0,2.0,67,0.00,,,0.00,Wunderground v.1.15,2013-02-20 07:05:00,
2013-02-20 00:14:00,45.5,35.5,29.72,SW,231,2.0,4.0,68,0.00,,,0.00,Wunderground v.1.15,2013-02-20 07:14:00,
2013-02-20 00:19:00,45.6,35.6,29.72,SSW,200,2.0,2.0,68,0.00,,,0.00,Wunderground v.1.15,2013-02-20 07:19:00,
2013-02-20 00:25:00,45.7,35.7,29.72,SW,223,2.0,3.0,68,0.00,,,0.00,Wunderground v.1.15,2013-02-20 07:25:00,
2013-02-20 00:30:00,45.6,35.3,29.72,SE,140,1.0,4.0,67,0.00,,,0.00,Wunderground v.1.15,2013-02-20 07:30:00,
2013-02-20 00:35:00,45.6,35.6,29.71,SSW,210,2.0,7.0,68,0.00,,,0.00,Wunderground v.1.15,2013-02-20 07:35:00,
2013-02-20 00:40:00,45.6,35.6,29.71,SSW,197,3.0,3.0,68,0.00,,,0.00,Wunderground v.1.15,2013-02-20 07:40:00,
2013-02-20 00:45:00,45.5,35.5,29.71,SSW,197,2.0,3.0,68,0.00,,,0.00,Wunderground v.1.15,2013-02-20 07:45:00,
2013-02-20 00:50:00,45.4,35.5,29.71,SSW,198,1.0,1.0,68,0.00,,,0.00,Wunderground v.1.15,2013-02-20 07:50:00,
2013-02-20 00:55:00,45.3,35.7,29.71,SSW,199,1.0,1.0,69,0.00,,,0.00,Wunderground v.1.15,2013-02-20 07:55:00,
2013-02-20 01:05:00,45.2,35.6,29.70,South,173,1.0,2.0,69,0.00,,,0.00,Wunderground v.1.15,2013-02-20 08:05:00,
2013-02-20 01:14:00,45.1,35.9,29.69,SSW,213,2.0,2.0,70,0.00,,,0.00,Wunderground v.1.15,2013-02-20 08:14:00,
2013-02-20 01:19:00,45.1,35.9,29.70,SSW,207,2.0,4.0,70,0.00,,,0.00,Wunderground v.1.15,2013-02-20 08:19:00,
2013-02-20 01:25:00,45.1,35.9,29.69,South,187,2.0,4.0,70,0.00,,,0.00,Wunderground v.1.15,2013-02-20 08:25:00,
2013-02-20 01:30:00,45.2,35.6,29.69,SSW,203,3.0,3.0,69,0.00,,,0.00,Wunderground v.1.15,2013-02-20 08:30:00,
2013-02-20 01:35:00,45.3,35.7,29.69,SSW,200,3.0,4.0,69,0.00,,,0.00,Wunderground v.1.15,2013-02-20 08:35:00,
2013-02-20 01:40:00,45.4,35.8,29.69,SSW,198,4.0,4.0,69,0.00,,,0.00,Wunderground v.1.15,2013-02-20 08:40:00,
2013-02-20 01:50:00,45.2,35.6,29.68,SW,218,2.0,2.0,69,0.00,,,0.00,Wunderground v.1.15,2013-02-20 08:50:00,
2013-02-20 01:55:00,45.2,35.6,29.68,SSW,193,3.0,8.0,69,0.00,,,0.00,Wunderground v.1.15,2013-02-20 08:55:00,
2013-02-20 02:05:00,45.0,35.4,29.68,SSW,194,4.0,4.0,69,0.00,,,0.00,Wunderground v.1.15,2013-02-20 09:05:00,
2013-02-20 02:14:00,44.8,35.2,29.67,SW,217,2.0,4.0,69,0.00,,,0.00,Wunderground v.1.15,2013-02-20 09:14:00,
2013-02-20 02:25:00,44.6,35.1,29.67,SSW,212,3.0,4.0,69,0.00,,,0.00,Wunderground v.1.15,2013-02-20 09:25:00,
2013-02-20 02:30:00,44.6,35.1,29.67,SW,221,2.0,4.0,69,0.00,,,0.00,Wunderground v.1.15,2013-02-20 09:30:00,
2013-02-20 02:35:00,44.6,35.1,29.67,South,183,3.0,4.0,69,0.00,,,0.00,Wunderground v.1.15,2013-02-20 09:35:00,
2013-02-20 02:40:00,44.6,35.4,29.66,SW,214,3.0,3.0,70,0.00,,,0.00,Wunderground v.1.15,2013-02-20 09:40:00,
2013-02-20 02:45:00,44.6,35.4,29.66,SSW,201,3.0,3.0,70,0.00,,,0.00,Wunderground v.1.15,2013-02-20 09:45:00,
2013-02-20 02:55:00,44.5,35.3,29.65,SSW,203,3.0,3.0,70,0.00,,,0.00,Wunderground v.1.15,2013-02-20 09:55:00,
2013-02-20 03:00:00,44.5,35.3,29.65,SSW,205,3.0,3.0,70,0.00,,,0.00,Wunderground v.1.15,2013-02-20 10:00:00,
2013-02-20 03:09:00,44.2,35.0,29.64,SSW,207,2.0,4.0,70,0.00,,,0.00,Wunderground v.1.15,2013-02-20 10:09:00,
2013-02-20 03:14:00,44.1,34.9,29.64,SSW,207,2.0,4.0,70,0.00,,,0.00,Wunderground v.1.15,2013-02-20 10:14:00,
2013-02-20 03:20:00,44.0,35.2,29.64,SSW,207,2.0,2.0,71,0.00,,,0.00,Wunderground v.1.15,2013-02-20 10:20:00,
2013-02-20 03:30:00,43.8,35.0,29.64,SSW,209,3.0,3.0,71,0.00,,,0.00,Wunderground v.1.15,2013-02-20 10:30:00,
2013-02-20 03:35:00,43.7,34.9,29.63,SSW,203,2.0,3.0,71,0.00,,,0.00,Wunderground v.1.15,2013-02-20 10:35:00,
2013-02-20 03:40:00,43.7,34.9,29.63,SSW,198,2.0,2.0,71,0.00,,,0.00,Wunderground v.1.15,2013-02-20 10:40:00,
2013-02-20 03:45:00,43.6,34.8,29.63,SSW,199,2.0,2.0,71,0.00,,,0.00,Wunderground v.1.15,2013-02-20 10:45:00,
2013-02-20 03:54:00,43.7,34.9,29.63,SSW,204,3.0,3.0,71,0.00,,,0.00,Wunderground v.1.15,2013-02-20 10:54:00,
2013-02-20 04:05:00,43.6,34.8,29.62,SSW,200,2.0,6.0,71,0.00,,,0.00,Wunderground v.1.15,2013-02-20 11:05:00,
2013-02-20 04:15:00,43.2,34.4,29.61,SSW,200,0.0,2.0,71,0.00,,,0.00,Wunderground v.1.15,2013-02-20 11:15:00,
2013-02-20 04:20:00,42.9,34.1,29.61,SSW,200,0.0,0.0,71,0.00,,,0.00,Wunderground v.1.15,2013-02-20 11:20:00,
2013-02-20 04:25:00,42.5,34.1,29.61,SSW,200,0.0,0.0,72,0.00,,,0.00,Wunderground v.1.15,2013-02-20 11:25:00,
2013-02-20 04:30:00,42.2,34.2,29.60,SSW,200,0.0,0.0,73,0.00,,,0.00,Wunderground v.1.15,2013-02-20 11:30:00,
2013-02-20 04:40:00,42.2,34.2,29.60,SSW,200,0.0,5.0,73,0.00,,,0.00,Wunderground v.1.15,2013-02-20 11:40:00,
2013-02-20 04:49:00,42.1,34.1,29.60,SSW,200,0.0,0.0,73,0.00,,,0.00,Wunderground v.1.15,2013-02-20 11:49:00,
2013-02-20 04:54:00,42.0,34.3,29.59,SSW,200,0.0,0.0,74,0.00,,,0.00,Wunderground v.1.15,2013-02-20 11:54:00,
2013-02-20 04:59:00,41.7,33.7,29.60,SSW,200,0.0,0.0,73,0.00,,,0.00,Wunderground v.1.15,2013-02-20 11:59:00,
2013-02-20 05:05:00,41.3,33.6,29.60,SSW,200,0.0,0.0,74,0.00,,,0.00,Wunderground v.1.15,2013-02-20 12:05:00,
2013-02-20 05:15:00,41.0,33.7,29.59,SSW,200,0.0,0.0,75,0.00,,,0.00,Wunderground v.1.15,2013-02-20 12:15:00,
2013-02-20 05:20:00,40.9,33.6,29.58,SSW,200,0.0,0.0,75,0.00,,,0.00,Wunderground v.1.15,2013-02-20 12:20:00,
2013-02-20 05:25:00,40.7,33.7,29.59,SSW,200,0.0,0.0,76,0.00,,,0.00,Wunderground v.1.15,2013-02-20 12:25:00,
2013-02-20 05:30:00,40.5,33.5,29.59,SSW,200,0.0,0.0,76,0.00,,,0.00,Wunderground v.1.15,2013-02-20 12:30:00,
2013-02-20 05:39:00,39.8,33.2,29.58,SSW,200,0.0,0.0,77,0.00,,,0.00,Wunderground v.1.15,2013-02-20 12:39:00,
2013-02-20 05:49:00,39.0,32.7,29.58,SSW,200,0.0,0.0,78,0.00,,,0.00,Wunderground v.1.15,2013-02-20 12:49:00,
2013-02-20 05:54:00,38.8,32.8,29.58,SSW,200,0.0,0.0,79,0.00,,,0.00,Wunderground v.1.15,2013-02-20 12:54:00,
2013-02-20 05:59:00,38.6,33.0,29.58,SSW,200,0.0,0.0,80,0.00,,,0.00,Wunderground v.1.15,2013-02-20 12:59:00,
2013-02-20 06:05:00,38.6,33.0,29.58,SSW,200,0.0,0.0,80,0.00,,,0.00,Wunderground v.1.15,2013-02-20 13:05:00,
2013-02-20 06:15:00,38.3,32.4,29.57,SSW,200,0.0,0.0,79,0.00,,,0.00,Wunderground v.1.15,2013-02-20 13:15:00,
2013-02-20 06:20:00,38.2,32.3,29.57,SSW,200,0.0,0.0,79,0.00,,,0.00,Wunderground v.1.15,2013-02-20 13:20:00,
2013-02-20 06:25:00,38.2,32.6,29.57,SSW,200,0.0,0.0,80,0.00,,,0.00,Wunderground v.1.15,2013-02-20 13:25:00,
2013-02-20 06:30:00,38.0,32.4,29.57,SSW,200,0.0,0.0,80,0.00,,,0.00,Wunderground v.1.15,2013-02-20 13:30:00,
2013-02-20 06:39:00,37.4,31.5,29.57,SSW,200,0.0,0.0,79,0.00,,,0.00,Wunderground v.1.15,2013-02-20 13:39:00,
2013-02-20 06:44:00,37.2,31.9,29.57,SSW,200,0.0,0.0,81,0.00,,,0.00,Wunderground v.1.15,2013-02-20 13:44:00,
2013-02-20 06:54:00,37.1,32.1,29.57,SSW,200,0.0,0.0,82,0.00,,,0.00,Wunderground v.1.15,2013-02-20 13:54:00,
2013-02-20 06:59:00,37.3,32.3,29.57,SSW,200,0.0,0.0,82,0.00,,,0.00,Wunderground v.1.15,2013-02-20 13:59:00,
2013-02-20 07:05:00,37.6,32.6,29.57,SSW,200,0.0,0.0,82,0.00,,,0.00,Wunderground v.1.15,2013-02-20 14:05:00,
2013-02-20 07:15:00,39.0,33.7,29.57,SSW,200,0.0,0.0,81,0.00,,,0.00,Wunderground v.1.15,2013-02-20 14:15:00,
2013-02-20 07:20:00,39.6,33.9,29.57,SSW,200,0.0,0.0,80,0.00,,,0.00,Wunderground v.1.15,2013-02-20 14:20:00,
2013-02-20 07:30:00,40.3,34.3,29.56,SSW,200,0.0,0.0,79,0.00,,,0.00,Wunderground v.1.15,2013-02-20 14:30:00,
2013-02-20 07:35:00,40.6,34.3,29.56,SSW,200,0.0,0.0,78,0.00,,,0.00,Wunderground v.1.15,2013-02-20 14:35:00,
2013-02-20 07:44:00,41.1,34.4,29.56,SSW,200,0.0,0.0,77,0.00,,,0.00,Wunderground v.1.15,2013-02-20 14:44:00,
2013-02-20 07:49:00,41.3,34.3,29.56,SSW,200,0.0,2.0,76,0.00,,,0.00,Wunderground v.1.15,2013-02-20 14:49:00,
2013-02-20 07:54:00,41.5,34.5,29.56,SSW,200,0.0,3.0,76,0.00,,,0.00,Wunderground v.1.15,2013-02-20 14:54:00,
2013-02-20 08:05:00,42.3,34.9,29.55,SW,218,1.0,1.0,75,0.00,,,0.00,Wunderground v.1.15,2013-02-20 15:05:00,
2013-02-20 08:15:00,43.3,35.2,29.54,SSW,213,1.0,3.0,73,0.00,,,0.00,Wunderground v.1.15,2013-02-20 15:15:00,
2013-02-20 08:20:00,44.0,35.2,29.54,South,189,3.0,3.0,71,0.00,,,0.00,Wunderground v.1.15,2013-02-20 15:20:00,
2013-02-20 08:25:00,44.4,35.2,29.54,SSW,209,3.0,3.0,70,0.00,,,0.00,Wunderground v.1.15,2013-02-20 15:25:00,
2013-02-20 08:35:00,44.6,34.7,29.53,SSW,210,3.0,5.0,68,0.00,,,0.00,Wunderground v.1.15,2013-02-20 15:35:00,
2013-02-20 08:44:00,44.3,34.4,29.53,SSW,194,3.0,4.0,68,0.00,,,0.00,Wunderground v.1.15,2013-02-20 15:44:00,
2013-02-20 08:49:00,44.3,34.4,29.53,SSW,211,2.0,2.0,68,0.00,,,0.00,Wunderground v.1.15,2013-02-20 15:49:00,
2013-02-20 08:54:00,44.3,34.4,29.53,SSW,206,2.0,2.0,68,0.00,,,0.00,Wunderground v.1.15,2013-02-20 15:54:00,
2013-02-20 09:00:00,44.4,34.1,29.52,SSW,205,3.0,3.0,67,0.00,,,0.00,Wunderground v.1.15,2013-02-20 16:00:00,
2013-02-20 09:05:00,45.5,35.2,29.52,South,191,3.0,5.0,67,0.00,,,0.00,Wunderground v.1.15,2013-02-20 16:05:00,
2013-02-20 09:15:00,47.2,34.4,29.51,South,180,5.0,12.0,61,0.00,,,0.00,Wunderground v.1.15,2013-02-20 16:15:00,
2013-02-20 09:20:00,47.8,34.6,29.51,South,186,5.0,6.0,60,0.00,,,0.00,Wunderground v.1.15,2013-02-20 16:20:00,
2013-02-20 09:25:00,48.5,33.5,29.51,SW,222,5.0,6.0,56,0.00,,,0.00,Wunderground v.1.15,2013-02-20 16:25:00,
2013-02-20 09:34:00,48.8,33.3,29.50,SSW,198,6.0,9.0,55,0.00,,,0.00,Wunderground v.1.15,2013-02-20 16:34:00,
2013-02-20 09:44:00,49.2,31.8,29.51,SW,217,5.0,7.0,51,0.00,,,0.00,Wunderground v.1.15,2013-02-20 16:44:00,
2013-02-20 09:49:00,49.1,31.2,29.50,SSW,209,5.0,7.0,50,0.00,,,0.00,Wunderground v.1.15,2013-02-20 16:49:00,
2013-02-20 09:54:00,48.2,29.4,29.50,SSW,195,6.0,7.0,48,0.00,,,0.00,Wunderground v.1.15,2013-02-20 16:54:00,
2013-02-20 10:00:00,48.9,29.5,29.50,SSW,195,6.0,12.0,47,0.00,,,0.00,Wunderground v.1.15,2013-02-20 17:00:00,
2013-02-20 10:05:00,48.8,28.9,29.49,SW,219,7.0,12.0,46,0.00,,,0.00,Wunderground v.1.15,2013-02-20 17:05:00,
2013-02-20 10:15:00,50.8,29.6,29.48,SSW,200,5.0,8.0,44,0.00,,,0.00,Wunderground v.1.15,2013-02-20 17:15:00,
2013-02-20 10:20:00,51.0,28.1,29.48,SSW,196,6.0,6.0,41,0.00,,,0.00,Wunderground v.1.15,2013-02-20 17:20:00,
2013-02-20 10:25:00,51.6,27.4,29.48,South,182,6.0,6.0,39,0.00,,,0.00,Wunderground v.1.15,2013-02-20 17:25:00,
2013-02-20 10:34:00,52.2,25.3,29.48,South,184,6.0,9.0,35,0.00,,,0.00,Wunderground v.1.15,2013-02-20 17:34:00,
2013-02-20 10:39:00,52.4,24.8,29.47,South,187,6.0,8.0,34,0.00,,,0.00,Wunderground v.1.15,2013-02-20 17:39:00,
2013-02-20 10:44:00,51.9,24.4,29.47,SW,215,6.0,10.0,34,0.00,,,0.00,Wunderground v.1.15,2013-02-20 17:44:00,
2013-02-20 10:54:00,53.5,25.1,29.46,SW,218,6.0,11.0,33,0.00,,,0.00,Wunderground v.1.15,2013-02-20 17:54:00,
2013-02-20 11:00:00,53.9,24.7,29.45,SSW,198,6.0,7.0,32,0.00,,,0.00,Wunderground v.1.15,2013-02-20 18:00:00,
2013-02-20 11:05:00,53.4,23.5,29.46,South,184,7.0,11.0,31,0.00,,,0.00,Wunderground v.1.15,2013-02-20 18:05:00,
2013-02-20 11:15:00,52.9,23.0,29.45,SSW,209,7.0,8.0,31,0.00,,,0.00,Wunderground v.1.15,2013-02-20 18:15:00,
2013-02-20 11:25:00,51.9,22.2,29.44,SW,215,7.0,7.0,31,0.00,,,0.00,Wunderground v.1.15,2013-02-20 18:25:00,
2013-02-20 11:34:00,53.1,22.4,29.44,SSW,202,7.0,8.0,30,0.00,,,0.00,Wunderground v.1.15,2013-02-20 18:34:00,
2013-02-20 11:39:00,53.0,21.6,29.44,SSW,200,7.0,7.0,29,0.00,,,0.00,Wunderground v.1.15,2013-02-20 18:39:00,
2013-02-20 11:44:00,52.6,21.2,29.44,SSW,202,6.0,7.0,29,0.00,,,0.00,Wunderground v.1.15,2013-02-20 18:44:00,
2013-02-20 11:50:00,52.5,20.3,29.43,SW,221,6.0,6.0,28,0.00,,,0.00,Wunderground v.1.15,2013-02-20 18:50:00,
2013-02-20 12:00:00,51.3,20.1,29.44,SSW,208,5.0,8.0,29,0.00,,,0.00,Wunderground v.1.15,2013-02-20 19:00:00,
2013-02-20 12:05:00,50.4,21.6,29.44,WSW,238,5.0,8.0,32,0.00,,,0.00,Wunderground v.1.15,2013-02-20 19:05:00,
2013-02-20 12:15:00,48.2,22.5,29.45,South,171,5.0,6.0,36,0.00,,,0.00,Wunderground v.1.15,2013-02-20 19:15:00,
2013-02-20 12:24:00,46.5,23.4,29.45,SW,236,3.0,6.0,40,0.00,,,0.00,Wunderground v.1.15,2013-02-20 19:24:00,
2013-02-20 12:34:00,46.3,25.0,29.43,SW,215,5.0,5.0,43,0.00,,,0.00,Wunderground v.1.15,2013-02-20 19:34:00,
2013-02-20 12:39:00,47.6,25.0,29.42,SSW,205,4.0,4.0,41,0.00,,,0.00,Wunderground v.1.15,2013-02-20 19:39:00,
2013-02-20 12:44:00,50.1,24.8,29.42,South,180,3.0,4.0,37,0.00,,,0.00,Wunderground v.1.15,2013-02-20 19:44:00,
2013-02-20 12:50:00,50.8,24.1,29.42,SSW,202,5.0,8.0,35,0.00,,,0.00,Wunderground v.1.15,2013-02-20 19:50:00,
2013-02-20 12:55:00,49.0,23.8,29.43,SW,217,7.0,8.0,37,0.00,,,0.00,Wunderground v.1.15,2013-02-20 19:55:00,
2013-02-20 13:00:00,48.2,23.1,29.43,SSW,206,5.0,5.0,37,0.00,,,0.00,Wunderground v.1.15,2013-02-20 20:00:00,
2013-02-20 13:05:00,47.7,23.9,29.42,SSW,192,3.0,5.0,39,0.00,,,0.00,Wunderground v.1.15,2013-02-20 20:05:00,
2013-02-20 13:15:00,47.7,22.0,29.42,SSW,192,4.0,12.0,36,0.00,,,0.00,Wunderground v.1.15,2013-02-20 20:15:00,
2013-02-20 13:20:00,48.4,19.9,29.40,South,190,5.0,5.0,32,0.00,,,0.00,Wunderground v.1.15,2013-02-20 20:20:00,
2013-02-20 13:29:00,52.2,19.2,29.40,SW,225,5.0,12.0,27,0.00,,,0.00,Wunderground v.1.15,2013-02-20 20:29:00,
2013-02-20 13:34:00,53.0,19.0,29.39,WSW,252,5.0,12.0,26,0.00,,,0.00,Wunderground v.1.15,2013-02-20 20:34:00,
2013-02-20 13:44:00,51.7,17.0,29.40,SSW,211,6.0,8.0,25,0.00,,,0.00,Wunderground v.1.15,2013-02-20 20:44:00,
2013-02-20 13:49:00,50.8,18.8,29.40,WNW,292,5.0,6.0,28,0.00,,,0.00,Wunderground v.1.15,2013-02-20 20:49:00,
2013-02-20 13:55:00,49.2,21.3,29.40,West,269,5.0,6.0,33,0.00,,,0.00,Wunderground v.1.15,2013-02-20 20:55:00,
2013-02-20 14:00:00,48.3,20.5,29.39,WNW,300,7.0,8.0,33,0.00,,,0.00,Wunderground v.1.15,2013-02-20 21:00:00,
2013-02-20 14:05:00,47.9,20.8,29.39,NW,311,8.0,8.0,34,0.00,,,0.00,Wunderground v.1.15,2013-02-20 21:05:00,
2013-02-20 14:15:00,48.1,23.7,29.39,WNW,302,9.0,9.0,38,0.00,,,0.00,Wunderground v.1.15,2013-02-20 21:15:00,
2013-02-20 14:20:00,47.6,22.6,29.40,NW,320,8.0,8.0,37,0.00,,,0.00,Wunderground v.1.15,2013-02-20 21:20:00,
2013-02-20 14:29:00,48.0,25.4,29.40,NW,304,7.0,7.0,41,0.00,,,0.00,Wunderground v.1.15,2013-02-20 21:29:00,
2013-02-20 14:34:00,49.0,24.5,29.40,WNW,300,5.0,8.0,38,0.00,,,0.00,Wunderground v.1.15,2013-02-20 21:34:00,
2013-02-20 14:39:00,49.6,23.0,29.40,WNW,293,7.0,7.0,35,0.00,,,0.00,Wunderground v.1.15,2013-02-20 21:39:00,
2013-02-20 14:44:00,49.8,23.2,29.41,WSW,244,7.0,7.0,35,0.00,,,0.00,Wunderground v.1.15,2013-02-20 21:44:00,
2013-02-20 14:49:00,49.1,21.9,29.41,West,281,5.0,5.0,34,0.00,,,0.00,Wunderground v.1.15,2013-02-20 21:49:00,
2013-02-20 14:55:00,48.7,22.2,29.41,NNW,330,3.0,5.0,35,0.00,,,0.00,Wunderground v.1.15,2013-02-20 21:55:00,
2013-02-20 15:00:00,49.1,20.5,29.41,WNW,284,3.0,3.0,32,0.00,,,0.00,Wunderground v.1.15,2013-02-20 22:00:00,
2013-02-20 15:05:00,49.8,19.6,29.41,SSW,207,3.0,4.0,30,0.00,,,0.00,Wunderground v.1.15,2013-02-20 22:05:00,
2013-02-20 15:14:00,49.6,19.4,29.41,West,261,3.0,3.0,30,0.00,,,0.00,Wunderground v.1.15,2013-02-20 22:14:00,
2013-02-20 15:20:00,49.6,19.4,29.41,WSW,237,2.0,2.0,30,0.00,,,0.00,Wunderground v.1.15,2013-02-20 22:20:00,
2013-02-20 15:29:00,50.0,18.9,29.41,WSW,242,2.0,2.0,29,0.00,,,0.00,Wunderground v.1.15,2013-02-20 22:29:00,
2013-02-20 15:34:00,49.9,18.9,29.41,SW,236,2.0,2.0,29,0.00,,,0.00,Wunderground v.1.15,2013-02-20 22:34:00,
2013-02-20 15:39:00,49.8,19.6,29.41,SW,234,2.0,2.0,30,0.00,,,0.00,Wunderground v.1.15,2013-02-20 22:39:00,
2013-02-20 15:45:00,49.9,19.7,29.41,WNW,298,2.0,4.0,30,0.00,,,0.00,Wunderground v.1.15,2013-02-20 22:45:00,
2013-02-20 15:50:00,49.7,18.7,29.42,NW,306,2.0,2.0,29,0.00,,,0.00,Wunderground v.1.15,2013-02-20 22:50:00,
2013-02-20 15:55:00,49.8,18.0,29.42,West,279,2.0,4.0,28,0.00,,,0.00,Wunderground v.1.15,2013-02-20 22:55:00,
2013-02-20 16:00:00,49.8,21.1,29.43,NNW,336,4.0,9.0,32,0.00,,,0.00,Wunderground v.1.15,2013-02-20 23:00:00,
2013-02-20 16:05:00,47.7,27.4,29.44,North,360,7.0,9.0,45,0.00,,,0.00,Wunderground v.1.15,2013-02-20 23:05:00,
2013-02-20 16:14:00,45.0,28.9,29.44,NNW,331,8.0,12.0,53,0.00,,,0.00,Wunderground v.1.15,2013-02-20 23:14:00,
2013-02-20 16:19:00,44.3,29.6,29.45,North,5,8.0,8.0,56,0.00,,,0.00,Wunderground v.1.15,2013-02-20 23:19:00,
2013-02-20 16:24:00,43.7,29.9,29.45,NNW,348,8.0,8.0,58,0.00,,,0.00,Wunderground v.1.15,2013-02-20 23:24:00,
2013-02-20 16:34:00,42.9,30.0,29.46,North,5,8.0,8.0,60,0.00,,,0.00,Wunderground v.1.15,2013-02-20 23:34:00,
2013-02-20 16:39:00,42.5,29.6,29.46,NNW,342,8.0,8.0,60,0.00,,,0.00,Wunderground v.1.15,2013-02-20 23:39:00,
2013-02-20 16:45:00,42.3,29.4,29.46,NNW,342,7.0,8.0,60,0.00,,,0.00,Wunderground v.1.15,2013-02-20 23:45:00,
2013-02-20 16:50:00,42.1,29.2,29.46,North,350,7.0,8.0,60,0.00,,,0.00,Wunderground v.1.15,2013-02-20 23:50:00,
2013-02-20 16:55:00,42.0,28.7,29.46,NNW,331,6.0,8.0,59,0.00,,,0.00,Wunderground v.1.15,2013-02-20 23:55:00,
2013-02-20 17:05:00,42.2,29.3,29.46,NNW,333,1.0,3.0,60,0.00,,,0.00,Wunderground v.1.15,2013-02-21 00:05:00,
2013-02-20 17:14:00,42.1,30.0,29.47,East,97,0.0,0.0,62,0.00,,,0.00,Wunderground v.1.15,2013-02-21 00:14:00,
2013-02-20 17:19:00,41.7,30.0,29.47,SE,128,1.0,4.0,63,0.00,,,0.00,Wunderground v.1.15,2013-02-21 00:19:00,
2013-02-20 17:24:00,41.4,29.7,29.47,SE,128,1.0,4.0,63,0.00,,,0.00,Wunderground v.1.15,2013-02-21 00:24:00,
2013-02-20 17:29:00,41.4,29.3,29.47,ESE,116,0.0,0.0,62,0.00,,,0.00,Wunderground v.1.15,2013-02-21 00:29:00,
2013-02-20 17:39:00,41.1,29.5,29.48,East,94,0.0,5.0,63,0.00,,,0.00,Wunderground v.1.15,2013-02-21 00:39:00,
2013-02-20 17:45:00,40.9,29.3,29.48,East,92,0.0,5.0,63,0.00,,,0.00,Wunderground v.1.15,2013-02-21 00:45:00,
2013-02-20 17:50:00,40.8,29.2,29.47,East,92,0.0,0.0,63,0.00,,,0.00,Wunderground v.1.15,2013-02-21 00:50:00,
2013-02-20 17:59:00,40.4,29.2,29.48,East,92,0.0,0.0,64,0.00,,,0.00,Wunderground v.1.15,2013-02-21 00:59:00,
2013-02-20 18:05:00,40.3,29.1,29.48,East,92,0.0,0.0,64,0.00,,,0.00,Wunderground v.1.15,2013-02-21 01:05:00,
2013-02-20 18:14:00,40.0,28.8,29.48,East,91,0.0,0.0,64,0.00,,,0.00,Wunderground v.1.15,2013-02-21 01:14:00,
2013-02-20 18:20:00,39.8,29.0,29.49,East,91,0.0,0.0,65,0.00,,,0.00,Wunderground v.1.15,2013-02-21 01:20:00,
2013-02-20 18:25:00,39.6,28.8,29.50,East,91,0.0,0.0,65,0.00,,,0.00,Wunderground v.1.15,2013-02-21 01:25:00,
2013-02-20 18:30:00,39.5,28.7,29.50,East,91,0.0,0.0,65,0.00,,,0.00,Wunderground v.1.15,2013-02-21 01:30:00,
2013-02-20 18:35:00,39.3,28.5,29.50,East,90,0.0,0.0,65,0.00,,,0.00,Wunderground v.1.15,2013-02-21 01:35:00,
2013-02-20 18:40:00,39.3,28.9,29.50,East,83,0.0,0.0,66,0.00,,,0.00,Wunderground v.1.15,2013-02-21 01:40:00,
2013-02-20 18:50:00,39.2,29.5,29.51,East,83,0.0,0.0,68,0.00,,,0.00,Wunderground v.1.15,2013-02-21 01:50:00,
2013-02-20 18:59:00,38.9,28.9,29.52,East,83,0.0,0.0,67,0.00,,,0.00,Wunderground v.1.15,2013-02-21 01:59:00,
2013-02-20 19:05:00,38.9,29.6,29.52,East,83,0.0,0.0,69,0.00,,,0.00,Wunderground v.1.15,2013-02-21 02:05:00,
2013-02-20 19:15:00,38.8,29.8,29.52,East,83,0.0,1.0,70,0.00,,,0.00,Wunderground v.1.15,2013-02-21 02:15:00,
2013-02-20 19:25:00,38.7,29.8,29.53,East,83,0.0,1.0,70,0.00,,,0.00,Wunderground v.1.15,2013-02-21 02:25:00,
2013-02-20 19:30:00,38.8,29.8,29.53,East,83,0.0,0.0,70,0.00,,,0.00,Wunderground v.1.15,2013-02-21 02:30:00,
2013-02-20 19:35:00,38.9,29.9,29.53,NE,55,0.0,2.0,70,0.00,,,0.00,Wunderground v.1.15,2013-02-21 02:35:00,
2013-02-20 19:40:00,39.0,30.0,29.53,NE,55,0.0,0.0,70,0.00,,,0.00,Wunderground v.1.15,2013-02-21 02:40:00,
2013-02-20 19:45:00,39.1,30.1,29.53,NE,55,0.0,0.0,70,0.00,,,0.00,Wunderground v.1.15,2013-02-21 02:45:00,
2013-02-20 19:54:00,39.0,30.0,29.53,NE,55,0.0,0.0,70,0.00,,,0.00,Wunderground v.1.15,2013-02-21 02:54:00,
2013-02-20 19:59:00,39.0,30.0,29.53,NE,55,0.0,0.0,70,0.00,,,0.00,Wunderground v.1.15,2013-02-21 02:59:00,
2013-02-20 20:05:00,38.9,29.6,29.53,NE,55,0.0,0.0,69,0.00,,,0.00,Wunderground v.1.15,2013-02-21 03:05:00,
2013-02-20 20:15:00,39.0,29.7,29.53,NE,55,0.0,0.0,69,0.00,,,0.00,Wunderground v.1.15,2013-02-21 03:15:00,
2013-02-20 20:20:00,38.9,29.6,29.53,NE,55,0.0,0.0,69,0.00,,,0.00,Wunderground v.1.15,2013-02-21 03:20:00,
2013-02-20 20:30:00,38.6,29.7,29.52,NE,55,0.0,0.0,70,0.00,,,0.00,Wunderground v.1.15,2013-02-21 03:30:00,
2013-02-20 20:39:00,38.5,29.6,29.52,NE,55,0.0,0.0,70,0.00,,,0.00,Wunderground v.1.15,2013-02-21 03:39:00,
2013-02-20 20:44:00,38.2,29.6,29.52,NE,55,0.0,0.0,71,0.00,,,0.00,Wunderground v.1.15,2013-02-21 03:44:00,
2013-02-20 20:49:00,38.1,29.5,29.52,NE,55,0.0,0.0,71,0.00,,,0.00,Wunderground v.1.15,2013-02-21 03:49:00,
2013-02-20 20:55:00,38.0,29.4,29.51,NE,55,0.0,0.0,71,0.00,,,0.00,Wunderground v.1.15,2013-02-21 03:55:00,
2013-02-20 21:05:00,37.9,29.0,29.51,NE,48,0.0,0.0,70,0.00,,,0.00,Wunderground v.1.15,2013-02-21 04:05:00,
2013-02-20 21:15:00,37.9,29.3,29.50,NE,47,1.0,1.0,71,0.00,,,0.00,Wunderground v.1.15,2013-02-21 04:15:00,
2013-02-20 21:20:00,37.7,29.1,29.50,NE,47,0.0,0.0,71,0.00,,,0.00,Wunderground v.1.15,2013-02-21 04:20:00,
2013-02-20 21:25:00,37.6,29.0,29.50,NE,47,0.0,0.0,71,0.00,,,0.00,Wunderground v.1.15,2013-02-21 04:25:00,
2013-02-20 21:30:00,37.0,28.5,29.50,NE,47,0.0,0.0,71,0.00,,,0.00,Wunderground v.1.15,2013-02-21 04:30:00,
2013-02-20 21:40:00,36.2,28.4,29.50,NE,47,0.0,0.0,73,0.00,,,0.00,Wunderground v.1.15,2013-02-21 04:40:00,
2013-02-20 21:45:00,36.2,28.4,29.50,NE,47,0.0,0.0,73,0.00,,,0.00,Wunderground v.1.15,2013-02-21 04:45:00,
2013-02-20 21:50:00,36.1,27.9,29.50,NE,47,0.0,0.0,72,0.00,,,0.00,Wunderground v.1.15,2013-02-21 04:50:00,
2013-02-20 22:00:00,35.3,27.8,29.50,NE,47,0.0,0.0,74,0.00,,,0.00,Wunderground v.1.15,2013-02-21 05:00:00,
2013-02-20 22:05:00,35.3,28.2,29.50,NE,47,0.0,0.0,75,0.00,,,0.00,Wunderground v.1.15,2013-02-21 05:05:00,
2013-02-20 22:15:00,35.2,28.1,29.50,NE,47,0.0,0.0,75,0.00,,,0.00,Wunderground v.1.15,2013-02-21 05:15:00,
2013-02-20 22:20:00,35.2,27.7,29.50,NE,47,0.0,0.0,74,0.00,,,0.00,Wunderground v.1.15,2013-02-21 05:20:00,
2013-02-20 22:25:00,35.5,28.0,29.49,NE,47,0.0,0.0,74,0.00,,,0.00,Wunderground v.1.15,2013-02-21 05:25:00,
2013-02-20 22:30:00,36.0,27.8,29.49,NE,47,0.0,0.0,72,0.00,,,0.00,Wunderground v.1.15,2013-02-21 05:30:00,
2013-02-20 22:35:00,36.3,28.1,29.49,NE,47,0.0,1.0,72,0.00,,,0.00,Wunderground v.1.15,2013-02-21 05:35:00,
2013-02-20 22:45:00,37.1,28.2,29.48,NE,47,0.0,0.0,70,0.00,,,0.00,Wunderground v.1.15,2013-02-21 05:45:00,
2013-02-20 22:55:00,36.7,28.2,29.47,NE,47,0.0,0.0,71,0.00,,,0.00,Wunderground v.1.15,2013-02-21 05:55:00,
2013-02-20 23:00:00,36.6,28.1,29.47,NE,47,0.0,0.0,71,0.00,,,0.00,Wunderground v.1.15,2013-02-21 06:00:00,
2013-02-20 23:05:00,36.3,27.4,29.47,NE,47,0.0,0.0,70,0.00,,,0.00,Wunderground v.1.15,2013-02-21 06:05:00,
2013-02-20 23:15:00,35.8,27.7,29.47,NE,47,0.0,0.0,72,0.00,,,0.00,Wunderground v.1.15,2013-02-21 06:15:00,
2013-02-20 23:20:00,35.5,27.7,29.48,NE,47,0.0,0.0,73,0.00,,,0.00,Wunderground v.1.15,2013-02-21 06:20:00,
2013-02-20 23:25:00,35.0,27.2,29.48,NE,47,0.0,0.0,73,0.00,,,0.00,Wunderground v.1.15,2013-02-21 06:25:00,
2013-02-20 23:35:00,35.1,27.6,29.49,WSW,257,0.0,1.0,74,0.00,,,0.00,Wunderground v.1.15,2013-02-21 06:35:00,
2013-02-20 23:40:00,35.4,27.6,29.49,WSW,255,1.0,1.0,73,0.00,,,0.00,Wunderground v.1.15,2013-02-21 06:40:00,
2013-02-20 23:45:00,35.4,27.6,29.49,West,266,1.0,1.0,73,0.00,,,0.00,Wunderground v.1.15,2013-02-21 06:45:00,
2013-02-20 23:55:00,35.0,27.2,29.50,WNW,283,0.0,0.0,73,0.00,,,0.00,Wunderground v.1.15,2013-02-21 06:55:00,